createdAt,value
2023-03-06T00:01:35.117Z,0.20
2023-03-06T00:04:07.721Z,0.14
2023-03-06T00:06:37.689Z,0.10
2023-03-06T00:09:08.722Z,0.10
2023-03-06T00:11:38.837Z,0.00
2023-03-06T00:14:08.865Z,0.00
2023-03-06T00:16:38.975Z,0.00
2023-03-06T00:19:08.943Z,0.00
2023-03-06T00:21:41.318Z,0.00
2023-03-06T00:24:11.290Z,-0.08
2023-03-06T00:26:41.427Z,-0.10
2023-03-06T00:29:11.829Z,-0.10
2023-03-06T00:31:45.845Z,-0.10
2023-03-06T00:34:15.980Z,-0.10
2023-03-06T00:36:46.187Z,-0.10
2023-03-06T00:39:16.218Z,-0.10
2023-03-06T00:41:47.122Z,-0.10
2023-03-06T00:44:17.318Z,-0.04
2023-03-06T00:46:47.603Z,0.00
2023-03-06T00:49:17.517Z,0.00
2023-03-06T00:51:47.614Z,0.00
2023-03-06T00:54:17.666Z,0.00
2023-03-06T00:56:48.271Z,0.00
2023-03-06T00:59:18.185Z,0.08
2023-03-06T01:01:48.229Z,0.10
2023-03-06T01:04:18.126Z,0.10
2023-03-06T01:06:48.175Z,0.10
2023-03-06T01:09:18.253Z,0.10
2023-03-06T01:11:48.842Z,0.18
2023-03-06T01:14:19.129Z,0.20
2023-03-06T01:16:49.104Z,0.24
2023-03-06T01:19:20.214Z,0.30
2023-03-06T01:21:50.037Z,0.30
2023-03-06T01:24:19.800Z,0.30
2023-03-06T01:26:49.984Z,0.40
2023-03-06T01:29:19.976Z,0.40
2023-03-06T01:31:49.706Z,0.40
2023-03-06T01:34:19.513Z,0.40
2023-03-06T01:36:49.310Z,0.40
2023-03-06T01:39:19.200Z,0.42
2023-03-06T01:41:49.398Z,0.44
2023-03-06T01:44:19.167Z,0.50
2023-03-06T01:46:50.456Z,0.48
2023-03-06T01:49:25.224Z,0.50
2023-03-06T01:51:58.599Z,0.50
2023-03-06T01:54:31.976Z,0.50
2023-03-06T01:57:07.128Z,0.50
2023-03-06T01:59:39.913Z,0.50
2023-03-06T02:02:12.354Z,0.50
2023-03-06T02:04:43.659Z,0.50
2023-03-06T02:07:16.716Z,0.56
2023-03-06T02:09:46.584Z,0.50
2023-03-06T02:12:19.128Z,0.50
2023-03-06T02:14:50.082Z,0.50
2023-03-06T02:17:23.074Z,0.50
2023-03-06T02:20:01.828Z,0.50
2023-03-06T02:22:40.210Z,0.50
2023-03-06T02:25:20.658Z,0.50
2023-03-06T02:27:49.782Z,0.46
2023-03-06T02:30:20.415Z,0.42
2023-03-06T02:32:50.124Z,0.40
2023-03-06T02:35:24.609Z,0.40
2023-03-06T02:37:56.738Z,0.40
2023-03-06T02:40:26.663Z,0.40
2023-03-06T02:42:58.930Z,0.40
2023-03-06T02:45:34.845Z,0.40
2023-03-06T02:48:04.994Z,0.40
2023-03-06T02:50:34.903Z,0.40
2023-03-06T02:53:04.660Z,0.40
2023-03-06T02:55:34.558Z,0.38
2023-03-06T02:58:07.104Z,0.40
2023-03-06T03:00:39.050Z,0.40
2023-03-06T03:03:11.018Z,0.36
2023-03-06T03:05:40.866Z,0.34
2023-03-06T03:08:22.983Z,0.30
2023-03-06T03:10:56.289Z,0.30
2023-03-06T03:13:26.623Z,0.30
2023-03-06T03:16:05.115Z,0.30
2023-03-06T03:18:35.438Z,0.32
2023-03-06T03:21:13.312Z,0.40
2023-03-06T03:23:43.112Z,0.40
2023-03-06T03:26:16.313Z,0.40
2023-03-06T03:28:50.044Z,0.40
2023-03-06T03:31:21.291Z,0.40
2023-03-06T03:33:52.724Z,0.40
2023-03-06T03:36:22.527Z,0.40
2023-03-06T03:38:52.291Z,0.40
2023-03-06T03:41:22.429Z,0.40
2023-03-06T03:43:52.137Z,0.40
2023-03-06T03:46:22.584Z,0.40
2023-03-06T03:48:52.493Z,0.40
2023-03-06T03:51:22.359Z,0.44
2023-03-06T03:53:56.272Z,0.50
2023-03-06T03:56:26.642Z,0.50
2023-03-06T03:59:01.909Z,0.50
2023-03-06T04:01:35.220Z,0.50
2023-03-06T04:04:05.273Z,0.50
2023-03-06T04:06:35.025Z,0.50
2023-03-06T04:09:04.892Z,0.50
2023-03-06T04:11:34.970Z,0.50
2023-03-06T04:14:04.809Z,0.50
2023-03-06T04:16:34.700Z,0.50
2023-03-06T04:19:04.476Z,0.50
2023-03-06T04:21:34.485Z,0.56
2023-03-06T04:24:05.061Z,0.60
2023-03-06T04:26:35.530Z,0.60
2023-03-06T04:29:04.232Z,0.60
2023-03-06T04:31:34.806Z,0.60
2023-03-06T04:34:04.564Z,0.60
2023-03-06T04:36:37.164Z,0.60
2023-03-06T04:39:11.038Z,0.60
2023-03-06T04:41:41.737Z,0.60
2023-03-06T04:44:11.620Z,0.60
2023-03-06T04:46:41.375Z,0.60
2023-03-06T04:49:11.086Z,0.64
2023-03-06T04:51:40.787Z,0.70
2023-03-06T04:54:10.582Z,0.70
2023-03-06T04:56:40.277Z,0.70
2023-03-06T04:59:10.309Z,0.70
2023-03-06T05:01:39.968Z,0.70
2023-03-06T05:04:09.669Z,0.72
2023-03-06T05:06:39.451Z,0.80
2023-03-06T05:09:09.188Z,0.80
2023-03-06T05:11:38.927Z,0.80
2023-03-06T05:14:08.780Z,0.90
2023-03-06T05:16:38.740Z,0.90
2023-03-06T05:19:08.518Z,1.00
2023-03-06T05:21:38.367Z,1.00
2023-03-06T05:24:09.430Z,1.10
2023-03-06T05:26:39.387Z,1.10
2023-03-06T05:29:09.188Z,1.20
2023-03-06T05:31:38.989Z,1.20
2023-03-06T05:34:09.530Z,1.30
2023-03-06T05:36:39.361Z,1.30
2023-03-06T05:39:09.540Z,1.30
2023-03-06T05:41:39.352Z,1.38
2023-03-06T05:44:09.242Z,1.40
2023-03-06T05:46:39.015Z,1.40
2023-03-06T05:49:08.887Z,1.42
2023-03-06T05:51:38.564Z,1.50
2023-03-06T05:54:08.731Z,1.50
2023-03-06T05:56:38.629Z,1.60
2023-03-06T05:59:08.369Z,1.60
2023-03-06T06:01:38.034Z,1.70
2023-03-06T06:04:07.982Z,1.70
2023-03-06T06:06:37.824Z,1.78
2023-03-06T06:09:07.607Z,1.80
2023-03-06T06:11:37.324Z,1.84
2023-03-06T06:14:07.066Z,1.90
2023-03-06T06:16:36.937Z,1.94
2023-03-06T06:19:07.069Z,2.00
2023-03-06T06:21:36.851Z,2.10
2023-03-06T06:24:07.893Z,2.10
2023-03-06T06:26:37.652Z,2.20
2023-03-06T06:29:08.710Z,2.30
2023-03-06T06:31:38.685Z,2.50
2023-03-06T06:34:10.025Z,2.60
2023-03-06T06:36:40.325Z,2.70
2023-03-06T06:39:11.686Z,2.86
2023-03-06T06:42:00.299Z,2.90
2023-03-06T06:44:31.394Z,3.00
2023-03-06T06:49:54.101Z,3.16
2023-03-06T06:52:24.853Z,3.20
2023-03-06T06:54:55.160Z,3.30
2023-03-06T06:57:25.030Z,3.30
2023-03-06T06:59:55.085Z,3.40
2023-03-06T07:02:25.212Z,3.46
2023-03-06T07:05:04.154Z,3.50
2023-03-06T07:07:38.058Z,3.50
2023-03-06T07:10:12.419Z,3.56
2023-03-06T07:12:42.231Z,3.60
2023-03-06T07:15:15.654Z,3.62
2023-03-06T07:17:45.824Z,3.70
2023-03-06T07:20:16.508Z,3.80
2023-03-06T07:22:51.410Z,3.80
2023-03-06T07:25:22.206Z,3.90
2023-03-06T07:27:54.646Z,4.00
2023-03-06T07:30:25.250Z,4.00
2023-03-06T07:32:55.370Z,4.10
2023-03-06T07:35:26.710Z,4.10
2023-03-06T07:37:56.703Z,4.20
2023-03-06T07:40:27.309Z,4.30
2023-03-06T07:43:09.127Z,4.30
2023-03-06T07:45:46.512Z,4.38
2023-03-06T07:48:16.834Z,4.40
2023-03-06T07:50:54.413Z,4.40
2023-03-06T07:53:24.253Z,4.50
2023-03-06T07:55:54.306Z,4.50
2023-03-06T07:58:24.746Z,4.60
2023-03-06T08:00:54.730Z,4.70
2023-03-06T08:03:24.646Z,4.80
2023-03-06T08:05:54.349Z,4.90
2023-03-06T08:08:24.117Z,5.00
2023-03-06T08:10:53.877Z,5.10
2023-03-06T08:13:23.640Z,5.30
2023-03-06T08:15:53.354Z,5.40
2023-03-06T08:18:23.268Z,5.60
2023-03-06T08:21:02.630Z,5.70
2023-03-06T08:23:33.474Z,5.80
2023-03-06T08:26:06.685Z,6.00
2023-03-06T08:28:36.549Z,6.10
2023-03-06T08:31:30.800Z,6.10
2023-03-06T08:34:05.160Z,6.08
2023-03-06T08:36:35.327Z,6.10
2023-03-06T08:39:06.058Z,6.20
2023-03-06T08:41:36.992Z,6.30
2023-03-06T08:44:07.614Z,6.30
2023-03-06T08:46:36.511Z,6.40
2023-03-06T08:49:06.574Z,6.40
2023-03-06T08:51:36.745Z,6.40
2023-03-06T08:54:06.948Z,6.42
2023-03-06T08:56:36.913Z,6.58
2023-03-06T08:59:08.821Z,6.80
2023-03-06T09:01:39.329Z,7.00
2023-03-06T09:04:10.948Z,7.28
2023-03-06T09:06:43.618Z,7.40
2023-03-06T09:09:14.166Z,7.60
2023-03-06T09:11:44.002Z,7.64
2023-03-06T09:14:14.086Z,7.80
2023-03-06T09:16:44.088Z,7.96
2023-03-06T09:19:14.115Z,8.00
2023-03-06T09:21:43.930Z,8.10
2023-03-06T09:24:13.776Z,8.18
2023-03-06T09:26:46.497Z,8.30
2023-03-06T09:29:17.041Z,8.50
2023-03-06T09:31:46.796Z,8.70
2023-03-06T09:34:16.586Z,8.86
2023-03-06T09:36:56.661Z,9.18
2023-03-06T09:39:27.483Z,9.10
2023-03-06T09:41:58.193Z,9.00
2023-03-06T09:44:31.229Z,8.90
2023-03-06T09:47:20.273Z,8.62
2023-03-06T09:50:15.654Z,8.40
2023-03-06T09:53:02.273Z,8.22
2023-03-06T09:55:35.395Z,8.00
2023-03-06T09:58:11.289Z,7.90
2023-03-06T10:00:46.591Z,7.90
2023-03-06T10:03:27.234Z,7.90
2023-03-06T10:06:02.951Z,7.90
2023-03-06T10:08:43.548Z,7.90
2023-03-06T10:11:18.357Z,7.94
2023-03-06T10:13:53.366Z,8.04
2023-03-06T10:16:28.800Z,8.40
2023-03-06T10:19:01.948Z,8.58
2023-03-06T10:21:43.640Z,8.60
2023-03-06T10:24:47.353Z,8.66
2023-03-06T10:27:31.134Z,8.80
2023-03-06T10:30:16.631Z,8.64
2023-03-06T10:32:54.957Z,8.80
2023-03-06T10:35:31.052Z,9.14
2023-03-06T10:38:15.761Z,9.60
2023-03-06T10:41:05.697Z,9.80
2023-03-06T10:43:36.897Z,10.00
2023-03-06T10:46:09.260Z,10.00
2023-03-06T10:48:42.145Z,9.86
2023-03-06T10:51:25.439Z,9.84
2023-03-06T10:53:57.980Z,10.00
2023-03-06T10:56:33.602Z,9.80
2023-03-06T10:59:13.926Z,9.60
2023-03-06T11:01:46.749Z,9.60
2023-03-06T11:04:27.018Z,9.70
2023-03-06T11:07:14.323Z,9.60
2023-03-06T11:09:47.648Z,9.72
2023-03-06T11:12:31.978Z,9.80
2023-03-06T11:15:22.295Z,9.70
2023-03-06T11:18:04.286Z,9.80
2023-03-06T11:20:51.580Z,9.70
2023-03-06T11:23:31.762Z,9.30
2023-03-06T11:26:08.563Z,9.20
2023-03-06T11:28:43.705Z,9.10
2023-03-06T11:31:17.191Z,8.80
2023-03-06T11:33:51.516Z,8.70
2023-03-06T11:36:29.279Z,8.80
2023-03-06T11:38:59.208Z,9.00
2023-03-06T11:41:39.139Z,8.90
2023-03-06T11:44:19.389Z,8.70
2023-03-06T11:46:53.717Z,8.50
2023-03-06T11:49:34.655Z,8.20
2023-03-06T11:52:12.800Z,8.10
2023-03-06T11:54:42.577Z,8.10
2023-03-06T11:57:18.019Z,8.58
2023-03-06T12:00:21.671Z,9.54
2023-03-06T12:03:43.756Z,10.20
2023-03-06T12:06:25.080Z,10.18
2023-03-06T12:09:18.803Z,11.00
2023-03-06T12:12:04.032Z,10.52
2023-03-06T12:14:55.549Z,9.76
2023-03-06T12:17:36.335Z,9.20
2023-03-06T12:20:28.121Z,9.40
2023-03-06T12:23:15.479Z,10.46
2023-03-06T12:25:55.600Z,11.32
2023-03-06T12:28:40.745Z,11.58
2023-03-06T12:31:28.115Z,11.88
2023-03-06T12:34:14.428Z,12.06
2023-03-06T12:37:04.885Z,12.30
2023-03-06T12:39:44.445Z,11.88
2023-03-06T12:43:03.838Z,11.12
2023-03-06T12:45:34.445Z,10.60
2023-03-06T12:48:09.531Z,10.20
2023-03-06T12:50:43.887Z,9.72
2023-03-06T12:53:23.536Z,9.20
2023-03-06T12:55:54.821Z,8.80
2023-03-06T12:58:51.615Z,8.40
2023-03-06T13:01:42.312Z,8.02
2023-03-06T13:04:33.762Z,7.76
2023-03-06T13:07:27.204Z,7.50
2023-03-06T13:10:21.145Z,7.28
2023-03-06T13:12:55.692Z,7.02
2023-03-06T13:15:41.323Z,6.80
2023-03-06T13:19:01.144Z,6.60
2023-03-06T13:22:26.292Z,6.50
2023-03-06T13:25:43.223Z,6.38
2023-03-06T13:28:38.085Z,6.10
2023-03-06T13:31:18.190Z,5.86
2023-03-06T13:33:59.393Z,5.60
2023-03-06T13:36:34.012Z,5.40
2023-03-06T13:39:08.798Z,5.20
2023-03-06T13:41:57.407Z,5.00
2023-03-06T13:44:48.529Z,4.80
2023-03-06T13:50:46.265Z,4.40
2023-03-06T13:53:57.747Z,4.38
2023-03-06T13:57:14.479Z,4.32
2023-03-06T14:00:18.412Z,4.40
2023-03-06T14:03:27.980Z,4.40
2023-03-06T14:05:58.665Z,4.50
2023-03-06T14:08:30.755Z,4.60
2023-03-06T14:11:08.210Z,4.60
2023-03-06T14:13:47.984Z,4.50
2023-03-06T14:16:23.377Z,4.30
2023-03-06T14:18:55.907Z,4.20
2023-03-06T14:21:31.163Z,4.14
2023-03-06T14:24:02.809Z,4.20
2023-03-06T14:26:39.860Z,4.30
2023-03-06T14:29:22.137Z,4.30
2023-03-06T14:31:53.676Z,4.40
2023-03-06T14:34:26.359Z,4.50
2023-03-06T14:36:58.771Z,4.50
2023-03-06T14:39:34.791Z,4.44
2023-03-06T14:42:15.538Z,4.50
2023-03-06T14:44:45.658Z,4.60
2023-03-06T14:47:27.238Z,4.62
2023-03-06T14:50:23.352Z,4.82
2023-03-06T14:52:56.990Z,5.06
2023-03-06T14:55:29.755Z,5.22
2023-03-06T14:58:07.779Z,5.40
2023-03-06T15:00:43.135Z,5.50
2023-03-06T15:03:18.103Z,5.60
2023-03-06T15:05:49.270Z,5.72
2023-03-06T15:08:24.263Z,5.82
2023-03-06T15:10:59.929Z,5.90
2023-03-06T15:13:32.097Z,5.96
2023-03-06T15:16:04.872Z,6.00
2023-03-06T15:18:38.626Z,6.00
2023-03-06T15:21:18.574Z,5.90
2023-03-06T15:23:50.866Z,5.80
2023-03-06T15:26:30.790Z,5.70
2023-03-06T15:29:20.071Z,5.70
2023-03-06T15:31:49.903Z,5.60
2023-03-06T15:34:27.096Z,5.50
2023-03-06T15:36:58.922Z,5.50
2023-03-06T15:40:01.915Z,5.40
2023-03-06T15:42:35.402Z,5.40
2023-03-06T15:45:16.044Z,5.40
2023-03-06T15:47:46.562Z,5.30
2023-03-06T15:50:16.992Z,5.30
2023-03-06T15:52:47.910Z,5.30
2023-03-06T15:55:20.878Z,5.20
2023-03-06T15:57:54.077Z,5.10
2023-03-06T16:00:28.797Z,5.00
2023-03-06T16:02:59.123Z,4.94
2023-03-06T16:05:30.000Z,4.90
2023-03-06T16:07:59.829Z,4.80
2023-03-06T16:10:32.861Z,4.70
2023-03-06T16:13:06.214Z,4.60
2023-03-06T16:15:40.909Z,4.50
2023-03-06T16:18:13.662Z,4.40
2023-03-06T16:20:43.670Z,4.30
2023-03-06T16:23:14.916Z,4.24
2023-03-06T16:25:48.922Z,4.14
2023-03-06T16:28:18.883Z,4.06
2023-03-06T16:30:48.799Z,4.00
2023-03-06T16:33:18.715Z,3.90
2023-03-06T16:35:49.466Z,3.80
2023-03-06T16:38:19.202Z,3.70
2023-03-06T16:40:49.003Z,3.60
2023-03-06T16:43:18.745Z,3.60
2023-03-06T16:45:48.744Z,3.50
2023-03-06T16:48:18.570Z,3.50
2023-03-06T16:50:48.422Z,3.44
2023-03-06T16:53:18.663Z,3.40
2023-03-06T16:55:48.839Z,3.42
2023-03-06T16:58:19.870Z,3.42
2023-03-06T17:00:49.670Z,3.50
2023-03-06T17:03:19.497Z,3.50
2023-03-06T17:05:49.320Z,3.50
2023-03-06T17:08:19.158Z,3.50
2023-03-06T17:10:50.264Z,3.50
2023-03-06T17:13:20.405Z,3.50
2023-03-06T17:15:56.535Z,3.50
2023-03-06T17:18:28.762Z,3.50
2023-03-06T17:20:59.142Z,3.50
2023-03-06T17:23:30.032Z,3.46
2023-03-06T17:26:09.083Z,3.40
2023-03-06T17:28:39.719Z,3.40
2023-03-06T17:31:15.518Z,3.40
2023-03-06T17:33:45.950Z,3.40
2023-03-06T17:36:16.712Z,3.30
2023-03-06T17:38:47.135Z,3.30
2023-03-06T17:41:17.113Z,3.28
2023-03-06T17:43:47.384Z,3.20
2023-03-06T17:46:18.167Z,3.20
2023-03-06T17:48:48.455Z,3.12
2023-03-06T17:51:18.332Z,3.10
2023-03-06T17:53:48.771Z,3.06
2023-03-06T17:56:17.802Z,3.00
2023-03-06T17:58:47.702Z,3.00
2023-03-06T18:01:20.542Z,3.00
2023-03-06T18:03:52.191Z,3.00
2023-03-06T18:06:22.564Z,3.00
2023-03-06T18:08:53.094Z,3.10
2023-03-06T18:11:22.594Z,3.10
2023-03-06T18:13:52.800Z,3.10
2023-03-06T18:16:26.594Z,3.20
2023-03-06T18:18:57.963Z,3.20
2023-03-06T18:21:28.100Z,3.20
2023-03-06T18:23:59.203Z,3.12
2023-03-06T18:26:30.849Z,3.18
2023-03-06T18:29:03.963Z,3.20
2023-03-06T18:31:36.081Z,3.20
2023-03-06T18:34:10.373Z,3.20
2023-03-06T18:36:43.187Z,3.20
2023-03-06T18:39:15.531Z,3.20
2023-03-06T18:41:45.444Z,3.20
2023-03-06T18:44:17.099Z,3.20
2023-03-06T18:46:47.325Z,3.20
2023-03-06T18:49:18.468Z,3.20
2023-03-06T18:51:55.191Z,3.20
2023-03-06T18:54:27.941Z,3.20
2023-03-06T18:56:57.938Z,3.10
2023-03-06T18:59:28.486Z,3.10
2023-03-06T19:01:58.931Z,3.06
2023-03-06T19:04:29.451Z,3.00
2023-03-06T19:06:59.291Z,2.90
2023-03-06T19:09:29.086Z,2.90
2023-03-06T19:12:03.952Z,2.90
2023-03-06T19:14:44.591Z,2.80
2023-03-06T19:17:15.620Z,2.78
2023-03-06T19:20:00.355Z,2.70
2023-03-06T19:22:41.701Z,2.70
2023-03-06T19:25:13.397Z,2.60
2023-03-06T19:27:44.350Z,2.60
2023-03-06T19:30:16.862Z,2.50
2023-03-06T19:32:47.291Z,2.50
2023-03-06T19:35:17.663Z,2.50
2023-03-06T19:37:46.542Z,2.42
2023-03-06T19:40:16.691Z,2.40
2023-03-06T19:42:46.523Z,2.38
2023-03-06T19:45:16.683Z,2.30
2023-03-06T19:47:46.980Z,2.30
2023-03-06T19:50:17.470Z,2.22
2023-03-06T19:52:46.185Z,2.20
2023-03-06T19:55:16.300Z,2.20
2023-03-06T19:57:46.162Z,2.10
2023-03-06T20:00:18.567Z,2.10
2023-03-06T20:02:49.028Z,2.10
2023-03-06T20:05:18.016Z,2.00
2023-03-06T20:07:48.426Z,2.00
2023-03-06T20:10:18.082Z,2.00
2023-03-06T20:12:47.846Z,2.00
2023-03-06T20:15:19.888Z,2.00
2023-03-06T20:17:49.775Z,2.00
2023-03-06T20:20:20.207Z,2.00
2023-03-06T20:22:50.054Z,2.00
2023-03-06T20:25:20.191Z,2.00
2023-03-06T20:27:49.970Z,2.00
2023-03-06T20:30:20.471Z,2.00
2023-03-06T20:32:49.176Z,2.00
2023-03-06T20:35:19.242Z,2.00
2023-03-06T20:37:49.012Z,2.00
2023-03-06T20:40:19.302Z,2.00
2023-03-06T20:42:49.127Z,2.00
2023-03-06T20:45:19.204Z,2.00
2023-03-06T20:47:49.360Z,1.94
2023-03-06T20:50:19.672Z,1.90
2023-03-06T20:52:53.149Z,1.94
2023-03-06T20:55:23.066Z,2.00
2023-03-06T20:57:53.227Z,2.00
2023-03-06T21:00:26.198Z,2.00
2023-03-06T21:03:01.027Z,2.00
2023-03-06T21:05:31.869Z,2.00
2023-03-06T21:08:01.779Z,2.00
2023-03-06T21:10:31.686Z,2.00
2023-03-06T21:13:01.859Z,1.96
2023-03-06T21:15:32.048Z,1.90
2023-03-06T21:18:01.883Z,1.90
2023-03-06T21:20:31.934Z,1.90
2023-03-06T21:23:01.847Z,1.86
2023-03-06T21:25:31.989Z,1.90
2023-03-06T21:28:01.949Z,1.88
2023-03-06T21:30:32.022Z,1.90
2023-03-06T21:33:03.362Z,1.90
2023-03-06T21:35:36.529Z,1.86
2023-03-06T21:38:07.309Z,1.86
2023-03-06T21:40:37.548Z,1.80
2023-03-06T21:43:08.389Z,1.80
2023-03-06T21:45:42.700Z,1.80
2023-03-06T21:48:13.415Z,1.80
2023-03-06T21:50:42.399Z,1.80
2023-03-06T21:53:12.211Z,1.80
2023-03-06T21:55:42.415Z,1.80
2023-03-06T21:58:12.225Z,1.80
2023-03-06T22:00:42.063Z,1.80
2023-03-06T22:03:12.678Z,1.80
2023-03-06T22:05:42.757Z,1.80
2023-03-06T22:08:12.589Z,1.80
2023-03-06T22:10:42.588Z,1.80
2023-03-06T22:13:12.729Z,1.80
2023-03-06T22:15:50.227Z,1.82
2023-03-06T22:18:20.230Z,1.90
2023-03-06T22:20:50.161Z,1.90
2023-03-06T22:23:19.943Z,1.80
2023-03-06T22:25:49.708Z,1.80
2023-03-06T22:28:20.266Z,1.80
2023-03-06T22:30:49.094Z,1.80
2023-03-06T22:33:19.017Z,1.88
2023-03-06T22:35:48.809Z,1.90
2023-03-06T22:38:18.681Z,1.90
2023-03-06T22:40:48.414Z,1.92
2023-03-06T22:43:19.539Z,1.96
2023-03-06T22:45:49.263Z,1.96
2023-03-06T22:48:19.112Z,1.90
2023-03-06T22:50:48.960Z,1.94
2023-03-06T22:53:18.791Z,1.92
2023-03-06T22:55:48.543Z,1.90
2023-03-06T22:58:18.301Z,1.94
2023-03-06T23:00:48.063Z,1.90
2023-03-06T23:03:17.942Z,1.92
2023-03-06T23:05:47.817Z,1.90
2023-03-06T23:08:17.504Z,1.90
2023-03-06T23:10:47.239Z,1.90
2023-03-06T23:13:35.768Z,1.96
2023-03-06T23:16:24.171Z,1.90
2023-03-06T23:19:12.352Z,1.90
2023-03-06T23:22:00.759Z,1.90
2023-03-06T23:24:49.174Z,1.90
2023-03-06T23:27:19.228Z,1.90
2023-03-06T23:29:54.836Z,1.90
2023-03-06T23:32:24.707Z,1.90
2023-03-06T23:34:54.511Z,1.90
2023-03-06T23:37:24.486Z,1.90
2023-03-06T23:39:54.499Z,1.90
2023-03-06T23:42:24.364Z,1.90
2023-03-06T23:44:54.255Z,1.80
2023-03-06T23:47:24.163Z,1.80
2023-03-06T23:49:53.912Z,1.80
2023-03-06T23:52:23.936Z,1.78
2023-03-06T23:54:53.708Z,1.74
2023-03-06T23:57:23.419Z,1.70
2023-03-06T23:59:53.334Z,1.70
